Time;durP1;ratioP1;P1;durP2;ratioP2;P2;SDS_P1;SDS_P2;PMS_P1;PMS_P2;Temp;Humidity;BMP_temperature;BMP_pressure;BME280_temperature;BME280_humidity;BME280_pressure;Samples;Min_cycle;Max_cycle;Signal;HPM_P1;HPM_P2
2022/10/12 00:00:11;;;;;;;10.02;5.30;;;;;;;3.26;100.00;102448.53;1027335;28;20298;-88
2022/10/12 00:00:42;;;;;;;8.20;4.22;;;;;;;3.26;100.00;102448.53;1023096;28;20654;-89
2022/10/12 00:01:14;;;;;;;7.22;4.80;;;;;;;3.24;100.00;102441.72;1026405;28;20393;-89
2022/10/12 00:01:46;;;;;;;8.20;4.60;;;;;;;3.21;100.00;102449.88;1027415;28;20317;-89
2022/10/12 00:02:17;;;;;;;10.60;4.53;;;;;;;3.20;100.00;102443.78;1027383;28;20290;-89
2022/10/12 00:02:49;;;;;;;10.38;4.00;;;;;;;3.20;100.00;102443.78;1027566;28;20305;-88
2022/10/12 00:03:21;;;;;;;8.73;4.43;;;;;;;3.11;100.00;102449.81;1027326;28;20781;-88
2022/10/12 00:03:53;;;;;;;7.57;4.03;;;;;;;3.01;100.00;102449.75;1022381;28;20358;-88
2022/10/12 00:04:24;;;;;;;5.65;3.88;;;;;;;3.12;100.00;102448.84;1027577;28;20306;-88
2022/10/12 00:04:55;;;;;;;6.90;4.60;;;;;;;3.16;100.00;102445.00;1027467;28;20385;-88
2022/10/12 00:05:27;;;;;;;4.95;4.10;;;;;;;3.08;100.00;102450.91;1026819;28;20384;-89
2022/10/12 00:06:11;;;;;;;5.80;3.88;;;;;;;3.05;100.00;102452.97;1028702;28;20285;-88
2022/10/12 00:06:43;;;;;;;7.88;3.75;;;;;;;2.98;100.00;102449.16;1022714;28;20321;-89
2022/10/12 00:07:14;;;;;;;6.18;4.25;;;;;;;3.02;100.00;102445.34;1023796;28;20317;-88
2022/10/12 00:07:45;;;;;;;4.72;4.03;;;;;;;3.04;100.00;102449.50;1031023;28;20309;-88
2022/10/12 00:08:17;;;;;;;4.93;4.15;;;;;;;3.03;100.00;102449.63;1026901;28;20352;-88
2022/10/12 00:08:51;;;;;;;5.22;3.83;;;;;;;3.06;100.00;102452.00;1016022;29;20303;-88
2022/10/12 00:09:22;;;;;;;5.93;4.15;;;;;;;3.10;100.00;102454.25;1019931;29;20452;-89
2022/10/12 00:09:54;;;;;;;6.57;4.05;;;;;;;3.15;100.00;102448.59;1023240;29;20303;-88
2022/10/12 00:10:28;;;;;;;5.85;3.83;;;;;;;3.15;100.00;102450.41;1027210;28;20302;-88
2022/10/12 00:11:00;;;;;;;6.78;3.85;;;;;;;3.10;100.00;102445.50;1023858;28;20389;-88
2022/10/12 00:11:31;;;;;;;6.47;4.20;;;;;;;3.08;100.00;102450.06;1023568;28;20664;-88
2022/10/12 00:12:03;;;;;;;8.75;3.67;;;;;;;3.08;100.00;102450.91;1030367;28;20429;-88
2022/10/12 00:12:34;;;;;;;5.55;3.70;;;;;;;3.03;100.00;102449.63;1027488;28;20847;-88
2022/10/12 00:13:06;;;;;;;4.55;3.72;;;;;;;3.07;100.00;102454.50;1031674;28;20407;-88
2022/10/12 00:13:38;;;;;;;4.55;3.78;;;;;;;3.06;100.00;102452.00;1020904;28;20443;-88
2022/10/12 00:14:10;;;;;;;8.95;4.18;;;;;;;3.07;100.00;102453.66;1019885;29;20311;-88
2022/10/12 00:14:41;;;;;;;8.93;3.42;;;;;;;3.12;100.00;102454.13;1023544;28;20294;-89
2022/10/12 00:15:13;;;;;;;4.70;4.03;;;;;;;3.15;100.00;102451.22;1023694;28;20310;-88
2022/10/12 00:15:44;;;;;;;8.18;4.60;;;;;;;3.09;100.00;102454.38;1027626;28;20668;-89
2022/10/12 00:16:17;;;;;;;6.80;3.83;;;;;;;3.06;100.00;102444.09;1022943;28;20426;-88
2022/10/12 00:16:49;;;;;;;12.38;4.20;;;;;;;2.98;100.00;102446.53;1023369;28;20305;-88
2022/10/12 00:17:20;;;;;;;7.25;4.45;;;;;;;2.93;100.00;102448.69;1027187;28;20725;-88
2022/10/12 00:17:52;;;;;;;5.57;4.22;;;;;;;2.92;100.00;102447.03;1022002;28;20393;-88
2022/10/12 00:18:24;;;;;;;9.27;4.63;;;;;;;2.95;100.00;102452.88;1023357;28;20298;-88
2022/10/12 00:18:56;;;;;;;12.25;4.70;;;;;;;2.97;100.00;102447.47;1018889;29;20325;-88
2022/10/12 00:19:27;;;;;;;6.78;4.32;;;;;;;2.99;100.00;102450.81;1022300;29;20389;-88
2022/10/12 00:19:59;;;;;;;11.18;4.00;;;;;;;2.93;100.00;102444.28;1026830;28;20388;-88
2022/10/12 00:20:31;;;;;;;4.70;3.60;;;;;;;3.01;100.00;102448.88;1025727;28;20652;-88
2022/10/12 00:21:05;;;;;;;5.93;3.47;;;;;;;2.97;100.00;102443.06;1026186;28;20373;-88
2022/10/12 00:21:37;;;;;;;9.77;4.43;;;;;;;3.00;100.00;102447.22;1022436;28;20358;-88
2022/10/12 00:22:09;;;;;;;9.10;4.20;;;;;;;2.96;100.00;102451.91;1027381;28;20356;-88
2022/10/12 00:22:41;;;;;;;6.93;4.20;;;;;;;2.97;100.00;102447.47;1027682;28;20373;-88
2022/10/12 00:23:13;;;;;;;12.73;4.53;;;;;;;2.95;100.00;102450.25;1031535;28;20313;-89
2022/10/12 00:23:44;;;;;;;7.72;4.72;;;;;;;2.94;100.00;102448.56;1031947;28;20376;-88
2022/10/12 00:24:16;;;;;;;7.53;4.78;;;;;;;2.96;100.00;102445.81;1028794;28;20310;-88
2022/10/12 00:24:48;;;;;;;7.80;4.55;;;;;;;2.99;100.00;102450.81;1030977;28;20380;-88
2022/10/12 00:25:19;;;;;;;9.00;4.05;;;;;;;2.99;100.00;102448.19;1023990;28;20922;-88
2022/10/12 00:25:51;;;;;;;10.80;5.13;;;;;;;2.98;100.00;102441.25;1019016;29;20837;-88
2022/10/12 00:26:23;;;;;;;8.60;5.03;;;;;;;2.99;100.00;102450.81;1023859;28;20393;-88
2022/10/12 00:26:55;;;;;;;6.80;4.43;;;;;;;3.03;100.00;102447.00;1030914;28;20435;-88
2022/10/12 00:27:26;;;;;;;9.57;5.22;;;;;;;3.02;100.00;102442.69;1031190;28;20305;-89
2022/10/12 00:27:58;;;;;;;5.43;4.32;;;;;;;3.03;100.00;102447.00;1022331;29;20860;-87
2022/10/12 00:28:29;;;;;;;8.75;5.03;;;;;;;3.06;100.00;102446.75;1019079;28;20308;-88
2022/10/12 00:29:01;;;;;;;9.18;5.65;;;;;;;3.04;100.00;102448.66;1027303;28;20369;-88
2022/10/12 00:29:33;;;;;;;9.23;4.85;;;;;;;3.10;100.00;102448.16;1027884;28;20297;-88
2022/10/12 00:30:05;;;;;;;8.85;5.82;;;;;;;3.06;100.00;102446.75;1028086;28;20369;-88
2022/10/12 00:30:39;;;;;;;6.65;4.78;;;;;;;2.96;100.00;102444.00;1022796;28;20299;-88
2022/10/12 00:31:13;;;;;;;9.90;4.47;;;;;;;3.01;100.00;102448.88;1022857;28;20342;-89
2022/10/12 00:31:45;;;;;;;13.57;4.97;;;;;;;3.01;100.00;102444.50;1026991;28;20314;-88
2022/10/12 00:32:17;;;;;;;11.30;6.45;;;;;;;3.06;100.00;102449.38;1023788;28;20873;-88
2022/10/12 00:32:49;;;;;;;6.07;4.00;;;;;;;2.98;100.00;102449.16;1020191;29;20280;-88
2022/10/12 00:33:20;;;;;;;7.05;4.05;;;;;;;3.01;100.00;102448.88;1027014;28;20389;-88
2022/10/12 00:33:52;;;;;;;8.10;4.53;;;;;;;2.97;100.00;102445.69;1026645;28;20657;-88
2022/10/12 00:34:23;;;;;;;12.98;5.03;;;;;;;2.96;100.00;102445.81;1021348;28;20387;-88
2022/10/12 00:34:55;;;;;;;9.07;5.03;;;;;;;2.93;100.00;102448.69;1023045;28;20762;-88
2022/10/12 00:35:29;;;;;;;8.60;5.15;;;;;;;2.88;100.00;102448.25;1018929;29;20303;-88
2022/10/12 00:36:31;;;;;;;9.15;4.70;;;;;;;2.97;100.00;102450.94;1022989;28;20299;-88
2022/10/12 00:37:02;;;;;;;5.03;3.17;;;;;;;2.86;100.00;102450.19;1020390;28;20318;-88
2022/10/12 00:37:34;;;;;;;7.20;4.38;;;;;;;2.91;100.00;102443.56;1027532;28;20035;-88
2022/10/12 00:38:06;;;;;;;10.25;5.22;;;;;;;2.96;100.00;102445.81;1031045;28;20308;-88
2022/10/12 00:38:37;;;;;;;4.85;3.90;;;;;;;2.96;100.00;102441.38;1026960;28;20375;-88
2022/10/12 00:39:09;;;;;;;9.50;5.47;;;;;;;2.96;100.00;102440.56;1023261;28;20705;-88
2022/10/12 00:39:41;;;;;;;9.80;4.82;;;;;;;2.97;100.00;102447.47;1019071;29;20785;-88
2022/10/12 00:40:12;;;;;;;7.28;5.30;;;;;;;2.98;100.00;102438.63;1022752;28;20334;-88
2022/10/12 00:40:44;;;;;;;6.47;4.82;;;;;;;3.03;100.00;102449.63;1019760;29;20323;-88
2022/10/12 00:41:17;;;;;;;8.13;5.07;;;;;;;3.03;100.00;102447.00;1023372;28;20314;-88
2022/10/12 00:41:49;;;;;;;8.95;4.80;;;;;;;2.97;100.00;102443.06;1022435;28;20397;-88
2022/10/12 00:42:20;;;;;;;9.02;4.90;;;;;;;2.88;100.00;102445.63;1023051;28;20334;-88
2022/10/12 00:42:52;;;;;;;13.85;5.43;;;;;;;2.92;100.00;102445.22;1022241;28;20331;-88
2022/10/12 00:43:34;;;;;;;9.90;5.53;;;;;;;2.91;100.00;102440.09;1023240;28;20391;-88
2022/10/12 00:44:41;;;;;;;10.13;5.82;;;;;;;2.96;100.00;102443.19;1029334;28;20309;-88
2022/10/12 00:45:13;;;;;;;9.52;4.50;;;;;;;2.92;100.00;102449.66;1026330;28;20436;-88
2022/10/12 00:45:45;;;;;;;11.07;4.95;;;;;;;2.95;100.00;102441.50;1018925;29;20652;-88
2022/10/12 00:46:20;;;;;;;5.78;5.18;;;;;;;3.01;100.00;102443.63;1025570;28;20302;-88
2022/10/12 00:46:53;;;;;;;9.55;5.10;;;;;;;3.02;100.00;102440.06;1035394;28;20876;-88
2022/10/12 00:47:29;;;;;;;14.93;5.07;;;;;;;2.97;100.00;102442.22;1026773;28;20306;-88
2022/10/12 00:48:00;;;;;;;6.90;5.13;;;;;;;2.95;100.00;102446.78;1033720;28;20404;-88
2022/10/12 00:48:32;;;;;;;8.95;4.78;;;;;;;3.04;100.00;102444.25;1032680;28;20311;-88
2022/10/12 00:49:22;;;;;;;17.70;6.65;;;;;;;3.04;100.00;102440.78;1028704;28;20693;-88
2022/10/12 00:50:09;;;;;;;6.85;4.00;;;;;;;3.00;100.00;102445.44;1021844;28;20302;-88
2022/10/12 00:50:40;;;;;;;9.85;5.32;;;;;;;3.02;100.00;102440.06;1023904;28;20318;-88
2022/10/12 00:51:12;;;;;;;9.25;4.88;;;;;;;3.02;100.00;102440.06;1022955;28;20784;-88
2022/10/12 00:51:48;;;;;;;14.18;5.47;;;;;;;3.02;100.00;102442.69;1025040;28;20314;-88
2022/10/12 00:52:21;;;;;;;7.35;4.22;;;;;;;2.98;100.00;102449.16;1019272;29;20295;-88
2022/10/12 00:52:57;;;;;;;13.00;4.68;;;;;;;3.02;100.00;102434.81;1027098;28;20401;-88
2022/10/12 00:53:36;;;;;;;5.18;4.65;;;;;;;3.01;100.00;102443.63;1028847;28;20692;-88
2022/10/12 00:54:12;;;;;;;11.15;4.90;;;;;;;3.01;100.00;102443.63;1020920;28;20771;-89
2022/10/12 00:54:46;;;;;;;9.63;4.72;;;;;;;2.90;100.00;102441.06;1023778;28;20324;-89
2022/10/12 00:55:19;;;;;;;7.72;4.78;;;;;;;2.97;100.00;102439.59;1024802;28;20385;-88
2022/10/12 00:55:54;;;;;;;6.72;4.85;;;;;;;3.01;100.00;102438.38;1025822;28;20717;-89
2022/10/12 00:56:27;;;;;;;6.70;4.50;;;;;;;3.04;100.00;102438.13;1021384;28;20388;-88
2022/10/12 00:56:59;;;;;;;8.85;4.90;;;;;;;3.09;100.00;102446.47;1023078;28;20382;-88
2022/10/12 00:57:30;;;;;;;7.75;5.13;;;;;;;3.12;100.00;102440.97;1022859;28;20326;-89
2022/10/12 00:58:04;;;;;;;8.65;5.18;;;;;;;3.14;100.00;102441.66;1018775;29;20338;-89
2022/10/12 00:58:36;;;;;;;8.00;5.20;;;;;;;3.15;100.00;102450.41;1023265;28;20331;-88
2022/10/12 00:59:13;;;;;;;5.97;4.38;;;;;;;3.23;100.00;102442.69;1023765;28;20809;-88
2022/10/12 00:59:59;;;;;;;6.82;4.57;;;;;;;3.22;100.00;102435.75;1022910;28;20386;-89
2022/10/12 01:00:31;;;;;;;6.72;4.10;;;;;;;3.14;100.00;102444.28;1022771;28;20696;-89
2022/10/12 01:01:04;;;;;;;3.40;3.10;;;;;;;3.11;100.00;102441.91;1018995;29;20832;-89
2022/10/12 01:01:35;;;;;;;4.15;3.28;;;;;;;3.05;100.00;102445.06;1029664;28;20309;-89
2022/10/12 01:02:07;;;;;;;8.27;3.25;;;;;;;3.02;100.00;102445.34;1027080;28;20306;-89
2022/10/12 01:02:40;;;;;;;3.75;3.22;;;;;;;3.06;100.00;102442.31;1023576;28;20962;-89
2022/10/12 01:03:14;;;;;;;8.45;3.65;;;;;;;3.06;100.00;102441.47;1024332;28;20504;-89
2022/10/12 01:03:46;;;;;;;6.90;4.07;;;;;;;3.04;100.00;102443.41;1026359;28;20348;-88
2022/10/12 01:04:18;;;;;;;6.30;4.50;;;;;;;3.06;100.00;102441.47;1023157;28;20366;-89
2022/10/12 01:04:49;;;;;;;7.00;4.32;;;;;;;3.12;100.00;102448.03;1023099;28;20317;-88
2022/10/12 01:05:21;;;;;;;6.80;4.55;;;;;;;3.12;100.00;102448.03;1026831;28;20781;-89
2022/10/12 01:05:53;;;;;;;14.30;4.63;;;;;;;3.08;100.00;102442.19;1027047;28;20341;-89
2022/10/12 01:06:25;;;;;;;7.03;4.40;;;;;;;3.02;100.00;102442.69;1031095;28;20364;-89
2022/10/12 01:06:56;;;;;;;7.55;4.53;;;;;;;3.00;100.00;102440.16;1030861;28;20354;-88
2022/10/12 01:07:28;;;;;;;9.45;4.50;;;;;;;3.02;100.00;102445.34;1026490;28;20381;-89
2022/10/12 01:08:01;;;;;;;6.20;4.60;;;;;;;3.02;100.00;102445.34;1025463;28;20442;-89
2022/10/12 01:08:33;;;;;;;8.65;4.78;;;;;;;3.00;100.00;102444.59;1024006;28;20378;-89
2022/10/12 01:09:04;;;;;;;5.80;4.80;;;;;;;2.98;100.00;102438.63;1026883;28;20452;-89
2022/10/12 01:09:36;;;;;;;7.63;5.45;;;;;;;3.00;100.00;102447.22;1023286;28;21777;-89
2022/10/12 01:10:08;;;;;;;7.30;4.50;;;;;;;2.99;100.00;102446.38;1023203;28;20723;-89
2022/10/12 01:10:39;;;;;;;7.88;5.05;;;;;;;2.93;100.00;102438.19;1026419;28;20394;-89
2022/10/12 01:11:11;;;;;;;13.02;5.45;;;;;;;2.88;100.00;102445.63;1019880;28;20327;-89
2022/10/12 01:11:43;;;;;;;7.53;4.65;;;;;;;2.87;100.00;102441.31;1028027;28;20308;-89
2022/10/12 01:12:15;;;;;;;5.43;4.22;;;;;;;2.86;100.00;102444.91;1027172;28;20321;-89
2022/10/12 01:12:48;;;;;;;7.85;4.88;;;;;;;2.83;100.00;102445.16;1028002;28;20362;-89
2022/10/12 01:13:20;;;;;;;14.18;4.80;;;;;;;2.84;100.00;102441.56;1031223;28;20305;-89
2022/10/12 01:13:51;;;;;;;7.30;4.60;;;;;;;2.82;100.00;102432.97;1031588;28;20383;-89
2022/10/12 01:14:23;;;;;;;8.10;4.60;;;;;;;2.78;100.00;102438.50;1027625;28;20385;-88
2022/10/12 01:14:55;;;;;;;5.30;4.55;;;;;;;2.81;100.00;102444.47;1026688;28;20306;-89
2022/10/12 01:15:32;;;;;;;6.15;4.70;;;;;;;2.88;100.00;102443.00;1032005;28;20433;-89
2022/10/12 01:16:15;;;;;;;7.28;5.07;;;;;;;2.86;100.00;102444.91;1027571;28;20371;-89
2022/10/12 01:16:54;;;;;;;7.18;4.93;;;;;;;2.88;100.00;102443.00;1025704;28;20337;-89
2022/10/12 01:17:37;;;;;;;8.30;4.55;;;;;;;2.87;100.00;102436.88;1022558;28;20373;-89
2022/10/12 01:18:18;;;;;;;6.50;4.63;;;;;;;2.94;100.00;102439.84;1024521;28;20694;-89
2022/10/12 01:18:59;;;;;;;7.35;5.60;;;;;;;2.91;100.00;102440.09;1026952;28;20866;-89
2022/10/12 01:19:37;;;;;;;5.38;4.43;;;;;;;2.86;100.00;102434.38;1025710;28;20043;-89
2022/10/12 01:20:26;;;;;;;8.55;4.28;;;;;;;2.84;100.00;102434.50;1028498;28;20360;-89
2022/10/12 01:21:08;;;;;;;7.05;4.68;;;;;;;2.88;100.00;102437.72;1026351;28;20381;-89
2022/10/12 01:21:47;;;;;;;9.55;6.00;;;;;;;2.91;100.00;102442.72;1030207;28;20310;-89
2022/10/12 01:22:19;;;;;;;8.05;4.97;;;;;;;2.91;100.00;102440.94;1031318;28;20336;-89
2022/10/12 01:23:03;;;;;;;6.35;5.10;;;;;;;2.87;100.00;102441.31;1026657;28;20333;-89
2022/10/12 01:23:53;;;;;;;13.00;5.20;;;;;;;2.90;100.00;102441.91;1025442;28;20441;-89
2022/10/12 01:24:27;;;;;;;8.60;4.70;;;;;;;2.96;100.00;102430.03;1026789;28;20777;-89
2022/10/12 01:25:18;;;;;;;7.32;4.88;;;;;;;2.98;100.00;102441.25;1030013;28;20842;-89
2022/10/12 01:25:58;;;;;;;5.82;4.00;;;;;;;2.94;100.00;102431.94;1028991;28;20305;-89
2022/10/12 01:27:01;;;;;;;7.32;4.63;;;;;;;2.90;100.00;102430.53;1027328;28;20206;-89
2022/10/12 01:27:50;;;;;;;8.27;4.75;;;;;;;2.88;100.00;102432.47;1027934;28;20119;-88
2022/10/12 01:28:32;;;;;;;8.75;4.68;;;;;;;2.95;100.00;102436.25;1025808;28;20306;-88
2022/10/12 01:29:46;;;;;;;8.98;4.60;;;;;;;2.92;100.00;102436.50;1027113;28;20835;-89
2022/10/12 01:30:21;;;;;;;7.50;3.80;;;;;;;2.92;100.00;102428.59;1018167;29;20342;-89
2022/10/12 01:30:59;;;;;;;9.27;4.78;;;;;;;2.87;100.00;102425.53;1027160;28;20385;-89
2022/10/12 01:31:57;;;;;;;8.43;5.00;;;;;;;2.86;100.00;102426.50;1025552;28;20385;-89
2022/10/12 01:32:53;;;;;;;5.82;3.95;;;;;;;2.84;100.00;102425.78;1010433;29;20415;-89
2022/10/12 01:33:31;;;;;;;11.48;5.20;;;;;;;2.86;100.00;102429.13;1024038;28;20718;-89
2022/10/12 01:34:14;;;;;;;7.18;5.25;;;;;;;2.87;100.00;102425.53;1021237;28;20681;-88
2022/10/12 01:35:01;;;;;;;7.80;5.78;;;;;;;2.92;100.00;102428.59;1027383;28;20669;-89
2022/10/12 01:35:50;;;;;;;6.70;4.05;;;;;;;2.96;100.00;102430.03;1029978;28;20293;-89
2022/10/12 01:36:26;;;;;;;6.90;4.38;;;;;;;2.98;100.00;102428.09;1032120;28;20704;-89
2022/10/12 01:37:39;;;;;;;7.53;4.60;;;;;;;2.95;100.00;102430.97;1028589;28;20306;-89
2022/10/12 01:38:20;;;;;;;4.85;4.10;;;;;;;3.00;100.00;102431.44;1035425;28;20309;-89
2022/10/12 01:39:10;;;;;;;;;;;;;;;3.00;100.00;102431.44;1036786;28;20301;-88
2022/10/12 01:39:49;;;;;;;7.28;3.80;;;;;;;3.06;100.00;102420.41;1035494;28;20025;-89
2022/10/12 01:40:36;;;;;;;5.15;4.22;;;;;;;3.09;100.00;102426.25;1035880;28;20355;-89
2022/10/12 01:41:19;;;;;;;6.00;3.30;;;;;;;3.14;100.00;102427.66;1034296;28;20782;-89
2022/10/12 01:41:56;;;;;;;13.10;6.55;;;;;;;3.10;100.00;102427.09;1036792;28;20379;-89
2022/10/12 01:42:31;;;;;;;8.15;4.50;;;;;;;3.11;100.00;102423.50;1035754;28;20292;-89
2022/10/12 01:43:03;;;;;;;7.90;4.82;;;;;;;3.10;100.00;102433.19;1030924;28;20337;-89
2022/10/12 01:43:36;;;;;;;8.43;4.20;;;;;;;3.09;100.00;102430.69;1027506;28;20384;-89
2022/10/12 01:44:08;;;;;;;4.88;4.00;;;;;;;3.04;100.00;102428.44;1024096;28;20330;-89
2022/10/12 01:44:39;;;;;;;7.28;6.07;;;;;;;3.01;100.00;102433.09;1027523;28;20362;-89
2022/10/12 01:45:16;;;;;;;7.05;4.63;;;;;;;3.04;100.00;102428.44;1024843;28;20390;-89
2022/10/12 01:45:47;;;;;;;8.73;4.55;;;;;;;3.05;100.00;102429.28;1018155;28;20837;-88
2022/10/12 01:46:19;;;;;;;9.38;4.60;;;;;;;3.04;100.00;102432.88;1015723;29;20421;-89
2022/10/12 01:46:52;;;;;;;5.85;4.28;;;;;;;3.03;100.00;102424.13;1017850;28;20304;-89
2022/10/12 01:47:24;;;;;;;8.07;4.90;;;;;;;2.95;100.00;102428.34;1024077;28;20314;-89
2022/10/12 01:47:56;;;;;;;6.72;4.70;;;;;;;3.02;100.00;102429.53;1032808;28;20343;-88
2022/10/12 01:48:27;;;;;;;9.60;4.60;;;;;;;3.07;100.00;102428.19;1031389;28;20347;-88
2022/10/12 01:49:00;;;;;;;4.80;4.18;;;;;;;3.02;100.00;102429.53;1028300;28;20696;-89
2022/10/12 01:49:33;;;;;;;4.03;3.65;;;;;;;2.89;100.00;102423.59;1019872;29;20386;-89
2022/10/12 01:50:07;;;;;;;5.63;4.70;;;;;;;2.82;100.00;102417.19;1024053;28;20306;-89
2022/10/12 01:50:47;;;;;;;9.60;4.07;;;;;;;2.80;100.00;102422.56;1027753;28;20340;-89
2022/10/12 01:51:28;;;;;;;10.65;4.20;;;;;;;2.75;100.00;102420.34;1029600;28;20293;-88
2022/10/12 01:52:14;;;;;;;10.32;4.63;;;;;;;2.78;100.00;102422.72;1027707;28;20041;-89
2022/10/12 01:52:52;;;;;;;7.22;4.15;;;;;;;2.85;100.00;102419.56;1031900;28;20293;-89
2022/10/12 01:53:38;;;;;;;13.82;3.95;;;;;;;2.80;100.00;102419.94;1030097;28;20779;-89
2022/10/12 01:54:27;;;;;;;7.05;4.68;;;;;;;2.81;100.00;102418.97;1033084;28;20906;-89
2022/10/12 01:55:16;;;;;;;5.57;4.22;;;;;;;2.76;100.00;102414.09;1028442;28;20818;-89
2022/10/12 01:56:02;;;;;;;7.15;3.90;;;;;;;2.76;100.00;102411.47;1024155;28;20294;-88
2022/10/12 01:56:39;;;;;;;4.95;4.13;;;;;;;2.77;100.00;102415.78;1024748;28;20852;-89
2022/10/12 01:57:22;;;;;;;5.05;3.50;;;;;;;2.75;100.00;102416.88;1031740;28;20372;-89
2022/10/12 01:58:05;;;;;;;5.93;4.10;;;;;;;2.70;100.00;102409.31;1031415;28;20399;-89
2022/10/12 01:58:52;;;;;;;8.77;4.68;;;;;;;2.73;100.00;102402.97;1038906;28;20666;-89
2022/10/12 01:59:40;;;;;;;9.95;4.65;;;;;;;2.81;100.00;102410.25;1039912;28;20341;-89
2022/10/12 02:00:14;;;;;;;6.10;4.10;;;;;;;2.83;100.00;102403.91;1033357;28;20335;-89
2022/10/12 02:01:01;;;;;;;4.97;4.25;;;;;;;2.91;100.00;102405.88;1031737;28;20432;-89
2022/10/12 02:01:41;;;;;;;4.43;4.03;;;;;;;2.94;100.00;102410.88;1027736;28;20433;-89
2022/10/12 02:02:29;;;;;;;11.30;4.40;;;;;;;2.93;100.00;102403.97;1017635;29;20433;-89
2022/10/12 02:03:07;;;;;;;6.18;4.15;;;;;;;2.95;100.00;102396.75;1027439;28;20816;-88
2022/10/12 02:04:02;;;;;;;3.95;3.63;;;;;;;2.98;100.00;102399.13;1027801;28;20340;-88
2022/10/12 02:05:00;;;;;;;5.25;3.63;;;;;;;3.00;100.00;102405.09;1029065;28;20769;-89
2022/10/12 02:05:35;;;;;;;4.80;3.83;;;;;;;3.04;100.00;102401.28;1022792;28;20431;-90
2022/10/12 02:06:11;;;;;;;6.10;4.47;;;;;;;3.06;100.00;102404.63;1023576;28;20442;-88
2022/10/12 02:06:49;;;;;;;4.85;4.40;;;;;;;3.11;100.00;102405.06;1023691;28;20384;-89
2022/10/12 02:07:35;;;;;;;10.85;3.85;;;;;;;3.15;100.00;102403.00;1026827;28;20322;-89
2022/10/12 02:08:32;;;;;;;5.88;3.50;;;;;;;3.08;100.00;102400.91;1032109;28;20772;-89
2022/10/12 02:09:25;;;;;;;6.63;4.15;;;;;;;3.08;100.00;102402.69;1031676;28;20814;-89
2022/10/12 02:09:57;;;;;;;8.07;4.15;;;;;;;3.05;100.00;102401.16;1029220;28;20352;-89
2022/10/12 02:10:35;;;;;;;4.05;3.60;;;;;;;3.06;100.00;102402.00;1031455;28;20311;-89
2022/10/12 02:11:12;;;;;;;5.72;4.10;;;;;;;3.02;100.00;102397.94;1031158;28;20359;-89
2022/10/12 02:11:45;;;;;;;8.18;3.97;;;;;;;2.95;100.00;102397.59;1026912;28;20308;-89
2022/10/12 02:12:20;;;;;;;8.45;4.35;;;;;;;2.90;100.00;102406.84;1022355;29;20302;-89
2022/10/12 02:12:53;;;;;;;4.82;4.07;;;;;;;2.83;100.00;102398.63;1019381;29;20363;-89
2022/10/12 02:13:28;;;;;;;10.10;4.82;;;;;;;2.90;100.00;102404.22;1017142;29;20304;-89
2022/10/12 02:14:06;;;;;;;7.15;4.10;;;;;;;2.88;100.00;102401.72;1020947;28;20350;-89
2022/10/12 02:14:42;;;;;;;6.60;5.00;;;;;;;2.89;100.00;102402.53;1021551;28;20287;-89
2022/10/12 02:15:14;;;;;;;6.93;3.45;;;;;;;2.92;100.00;102391.75;1029206;28;20310;-88
2022/10/12 02:15:48;;;;;;;12.15;4.07;;;;;;;2.89;100.00;102399.91;1029609;28;20368;-89
2022/10/12 02:16:26;;;;;;;5.55;4.20;;;;;;;2.85;100.00;102401.13;1031483;28;20387;-88
2022/10/12 02:17:01;;;;;;;7.78;4.03;;;;;;;2.86;100.00;102397.53;1023222;28;20393;-89
2022/10/12 02:17:33;;;;;;;7.10;3.85;;;;;;;2.82;100.00;102396.97;1023845;28;20848;-89
2022/10/12 02:18:07;;;;;;;10.18;3.95;;;;;;;2.83;100.00;102392.53;1026951;28;20711;-89
2022/10/12 02:18:42;;;;;;;5.00;3.50;;;;;;;2.76;100.00;102397.47;1030370;28;20866;-89
2022/10/12 02:19:20;;;;;;;4.53;3.80;;;;;;;2.70;100.00;102398.81;1025471;28;20895;-89
2022/10/12 02:19:55;;;;;;;8.40;4.03;;;;;;;2.70;100.00;102393.53;1027380;28;20360;-89
2022/10/12 02:20:27;;;;;;;4.72;3.95;;;;;;;2.70;100.00;102393.53;1031359;28;20324;-89
2022/10/12 02:20:59;;;;;;;4.68;4.20;;;;;;;2.69;100.00;102397.13;1029520;28;20437;-89
2022/10/12 02:21:32;;;;;;;7.60;4.40;;;;;;;2.61;100.00;102399.56;1027613;28;20322;-89
2022/10/12 02:22:05;;;;;;;8.55;3.95;;;;;;;2.68;100.00;102389.38;1028534;28;20808;-89
2022/10/12 02:22:38;;;;;;;6.15;4.55;;;;;;;2.74;100.00;102391.50;1023922;28;20984;-88
2022/10/12 02:23:10;;;;;;;6.65;3.90;;;;;;;2.78;100.00;102395.56;1027603;28;20310;-89
2022/10/12 02:23:42;;;;;;;4.00;3.15;;;;;;;2.77;100.00;102394.72;1031119;28;20297;-88
2022/10/12 02:24:14;;;;;;;5.07;3.97;;;;;;;2.81;100.00;102391.84;1023471;28;20385;-89
2022/10/12 02:24:47;;;;;;;7.13;3.75;;;;;;;2.83;100.00;102392.53;1023426;29;20309;-90
2022/10/12 02:25:21;;;;;;;10.50;4.90;;;;;;;2.79;100.00;102392.78;1023783;29;20379;-89
2022/10/12 02:25:52;;;;;;;6.15;4.10;;;;;;;2.78;100.00;102395.56;1028328;28;20367;-89
2022/10/12 02:26:24;;;;;;;5.72;4.05;;;;;;;2.79;100.00;102389.34;1028248;28;20327;-89
2022/10/12 02:26:57;;;;;;;6.57;3.92;;;;;;;2.77;100.00;102392.09;1031953;28;20321;-89
2022/10/12 02:27:29;;;;;;;6.18;3.95;;;;;;;2.79;100.00;102394.59;1027071;28;20441;-89
2022/10/12 02:28:09;;;;;;;11.10;4.72;;;;;;;2.78;100.00;102396.38;1024204;28;20378;-89
2022/10/12 02:28:42;;;;;;;8.63;4.22;;;;;;;2.76;100.00;102387.78;1021513;28;20303;-89
2022/10/12 02:29:18;;;;;;;8.43;3.72;;;;;;;2.67;100.00;102388.53;1023484;29;20043;-89
2022/10/12 02:29:49;;;;;;;7.28;3.80;;;;;;;2.61;100.00;102388.22;1023477;29;20307;-89
2022/10/12 02:30:21;;;;;;;6.05;4.30;;;;;;;2.67;100.00;102388.53;1031451;28;20324;-89
2022/10/12 02:30:59;;;;;;;6.85;4.28;;;;;;;2.73;100.00;102382.75;1031482;28;20936;-89
2022/10/12 02:31:55;;;;;;;5.20;4.45;;;;;;;2.68;100.00;102387.56;1033913;28;20439;-89
2022/10/12 02:32:29;;;;;;;6.55;3.90;;;;;;;2.73;100.00;102388.03;1027869;28;20683;-89
2022/10/12 02:33:00;;;;;;;7.35;3.78;;;;;;;2.73;100.00;102388.03;1027145;28;20333;-89
2022/10/12 02:34:24;;;;;;;4.82;3.55;;;;;;;2.64;100.00;102388.78;1022000;29;20334;-89
2022/10/12 02:35:13;;;;;;;6.68;3.85;;;;;;;2.74;100.00;102384.47;1021731;29;20385;-89
2022/10/12 02:35:53;;;;;;;8.10;3.90;;;;;;;2.76;100.00;102386.97;1017559;29;20391;-88
2022/10/12 02:36:30;;;;;;;5.75;5.20;;;;;;;2.77;100.00;102393.88;1011642;29;22169;-89
2022/10/12 02:37:12;;;;;;;3.65;3.30;;;;;;;2.83;100.00;102379.38;1017789;29;20087;-89
2022/10/12 02:37:48;;;;;;;5.32;4.03;;;;;;;2.84;100.00;102383.69;1015467;29;20320;-89
2022/10/12 02:38:25;;;;;;;3.70;3.40;;;;;;;2.78;100.00;102391.13;1022861;29;20357;-89
2022/10/12 02:39:13;;;;;;;10.52;5.75;;;;;;;2.72;100.00;102388.97;1019239;29;20794;-89
2022/10/12 02:39:53;;;;;;;6.53;4.28;;;;;;;2.69;100.00;102391.03;1015450;29;20399;-89
2022/10/12 02:40:32;;;;;;;4.32;3.45;;;;;;;2.68;100.00;102387.56;1011658;29;20304;-89
2022/10/12 02:41:08;;;;;;;4.95;3.28;;;;;;;2.70;100.00;102388.28;1025944;28;20784;-88
2022/10/12 02:41:47;;;;;;;3.88;3.10;;;;;;;2.71;100.00;102386.47;1027710;28;20349;-89
2022/10/12 02:42:34;;;;;;;6.25;3.40;;;;;;;2.72;100.00;102383.72;1023744;28;20338;-89
2022/10/12 02:43:34;;;;;;;4.22;3.20;;;;;;;2.69;100.00;102386.59;1029202;28;20318;-89
2022/10/12 02:44:10;;;;;;;3.75;2.70;;;;;;;2.70;100.00;102383.00;1033722;28;20305;-89
2022/10/12 02:44:42;;;;;;;5.03;4.30;;;;;;;2.69;100.00;102383.97;1027986;28;20132;-89
2022/10/12 02:45:15;;;;;;;4.60;3.72;;;;;;;2.72;100.00;102381.09;1027345;28;20301;-89
2022/10/12 02:45:47;;;;;;;5.47;3.72;;;;;;;2.64;100.00;102378.25;1023676;28;20307;-89
2022/10/12 02:46:19;;;;;;;6.28;4.53;;;;;;;2.56;100.00;102383.34;1020464;29;20378;-89
2022/10/12 02:46:52;;;;;;;5.90;4.20;;;;;;;2.48;100.00;102381.34;1020213;29;20310;-89
2022/10/12 02:47:25;;;;;;;4.35;3.60;;;;;;;2.47;100.00;102370.94;1022924;28;20373;-89
2022/10/12 02:47:58;;;;;;;13.18;4.00;;;;;;;2.53;100.00;102380.97;1027228;28;20302;-89
2022/10/12 02:48:30;;;;;;;4.93;3.17;;;;;;;2.54;100.00;102376.53;1027555;28;20388;-89
2022/10/12 02:49:02;;;;;;;4.53;3.55;;;;;;;2.46;100.00;102380.59;1026202;28;20300;-89
2022/10/12 02:49:35;;;;;;;6.75;3.85;;;;;;;2.47;100.00;102376.22;1028098;28;20737;-89